»·PEaware :: N55NT KSNA-KSBA

N55NT :: KSNA-KSBA

FLIGHT INFORMATION

Flight Status: Arrived
Operator: Privately registered:
United States
More flights under this callsign
Pilot: Craig H. (6968)
Aircraft: BEECH AIRCRAFT SUPER KING AIR 350
(B350)
More flights by this aircraft type
Origin: KSNA John Wayne-Orange Co
United States
Destination: KSBA Santa Barbara Mun
United States
More flights between these airports :: More routes between these airports
Route: SXC V208 VTU VTU282R KWANG
File this flight plan on PilotEdge
Remarks: CSTP28
Altitude:
(Current/Filed)
8,000ft
Speed:
(Current/Filed)
300kts
Departed: 21-Jul-20 04:16 PM
Arrived: 21-Jul-20 04:49 PM
Distance/Time
Traveled:
108nm/0:32
Distance/Time
To Go:
Arrived

Flight Plot

Page will automatically refresh every two minutes.


Map Options




Map Legend


Flown Route
Filed Route
Departure Airport
Arrival Airport
Navaid (VOR, NDB)
Fix

Horizontal Profiles

Position Reports

Time Latitude Longitude Heading Altitude Ground
Speed
21-Jul-20 15:46 33.666038 -117.873046 41 61ft 0kts
21-Jul-20 15:47 33.666038 -117.873046 41 61ft 0kts
21-Jul-20 15:49 33.666038 -117.873046 41 61ft 0kts
21-Jul-20 15:49 33.666038 -117.873046 41 61ft 0kts
21-Jul-20 15:50 33.666038 -117.873046 41 61ft 0kts
21-Jul-20 15:52 33.666038 -117.873046 41 61ft 0kts
21-Jul-20 15:52 33.666038 -117.873046 41 61ft 0kts
21-Jul-20 15:53 33.666038 -117.873046 41 61ft 0kts
21-Jul-20 15:54 33.666038 -117.873046 41 61ft 0kts
21-Jul-20 15:55 33.666038 -117.873046 41 61ft 0kts
21-Jul-20 15:56 33.666038 -117.873046 41 61ft 0kts
21-Jul-20 15:57 33.666038 -117.873046 41 61ft 0kts
21-Jul-20 15:58 33.666038 -117.873046 41 61ft 0kts
21-Jul-20 15:59 33.666038 -117.873046 41 61ft 0kts
21-Jul-20 16:00 33.666038 -117.873046 42 61ft 0kts
21-Jul-20 16:01 33.666038 -117.873046 41 61ft 0kts
21-Jul-20 16:02 33.666038 -117.873046 42 61ft 0kts
21-Jul-20 16:03 33.666038 -117.873046 41 61ft 0kts
21-Jul-20 16:04 33.666038 -117.873046 41 61ft 0kts
21-Jul-20 16:05 33.666038 -117.873046 41 61ft 0kts
21-Jul-20 16:06 33.666038 -117.873046 41 61ft 0kts
21-Jul-20 16:07 33.666038 -117.873046 41 61ft 0kts
21-Jul-20 16:08 33.666038 -117.873046 41 61ft 0kts
21-Jul-20 16:09 33.666113 -117.873063 311 61ft 0kts
21-Jul-20 16:10 33.667766 -117.873502 297 61ft 16kts
21-Jul-20 16:11 33.671370 -117.873060 27 61ft 19kts
21-Jul-20 16:12 33.676758 -117.869656 28 61ft 25kts
21-Jul-20 16:13 33.681665 -117.866730 36 61ft 14kts
21-Jul-20 16:14 33.681365 -117.865246 202 61ft 0kts
21-Jul-20 16:15 33.659824 -117.877304 191 1000ft 142kts
21-Jul-20 16:16 33.615160 -117.882445 186 2728ft 189kts
21-Jul-20 16:17 33.566808 -117.890699 220 5075ft 179kts
21-Jul-20 16:18 33.546199 -117.944930 246 7049ft 182kts
21-Jul-20 16:19 33.525096 -118.004634 246 8012ft 225kts
21-Jul-20 16:20 33.497954 -118.080994 246 8000ft 264kts
21-Jul-20 16:21 33.468203 -118.164097 246 8000ft 276kts
21-Jul-20 16:22 33.437638 -118.248900 246 8010ft 277kts
21-Jul-20 16:23 33.407088 -118.333318 246 8020ft 276kts
21-Jul-20 16:24 33.387900 -118.420856 279 7983ft 279kts
21-Jul-20 16:25 33.429749 -118.498169 309 7983ft 282kts
21-Jul-20 16:26 33.480933 -118.569508 309 7972ft 282kts
21-Jul-20 16:27 33.531455 -118.641377 309 7959ft 282kts
21-Jul-20 16:28 33.581411 -118.712840 308 7952ft 281kts
21-Jul-20 16:29 33.631615 -118.784806 308 7954ft 281kts
21-Jul-20 16:30 33.681513 -118.856473 308 7957ft 280kts
21-Jul-20 16:31 33.731093 -118.927816 308 7957ft 276kts
21-Jul-20 16:32 33.780921 -118.997818 318 7947ft 276kts
21-Jul-20 16:33 33.853879 -119.022496 353 7957ft 280kts
21-Jul-20 16:34 33.931366 -119.029447 353 7957ft 279kts
21-Jul-20 16:35 34.008782 -119.037315 353 7979ft 278kts
21-Jul-20 16:36 34.082529 -119.045409 348 7997ft 278kts
21-Jul-20 16:37 34.136159 -119.103183 291 8000ft 269kts
21-Jul-20 16:38 34.171140 -119.183212 297 8050ft 269kts
21-Jul-20 16:39 34.205589 -119.263538 296 7921ft 274kts
21-Jul-20 16:40 34.238868 -119.343818 295 6390ft 256kts
21-Jul-20 16:41 34.270756 -119.420642 295 4886ft 255kts
21-Jul-20 16:42 34.302186 -119.496460 295 3978ft 245kts
21-Jul-20 16:43 34.330534 -119.571927 292 3975ft 248kts
21-Jul-20 16:44 34.357839 -119.648821 292 3975ft 249kts
21-Jul-20 16:45 34.392829 -119.723832 309 2952ft 252kts
21-Jul-20 16:46 34.427226 -119.783574 282 1623ft 180kts
21-Jul-20 16:47 34.427957 -119.833811 267 63ft 118kts
21-Jul-20 16:48 34.426714 -119.851735 159 15ft 4kts
21-Jul-20 16:49 34.426682 -119.851720 157 15ft 0kts
21-Jul-20 16:50 34.426448 -119.850408 89 15ft 17kts
21-Jul-20 16:51 34.426583 -119.843817 88 15ft 22kts
21-Jul-20 16:52 34.425752 -119.838043 167 13ft 20kts
21-Jul-20 16:53 34.422595 -119.836192 4 12ft 3kts
21-Jul-20 16:54 34.422604 -119.836191 6 12ft 0kts

Navigation Log

Ident Type
Flight plan parsing failed, navigation log unavailable